Terminal Aerodrome Forecast
Issued by NWS Mt. Holly, NJ

Home | Current Version | Previous Version | Text Only | Print | Product List | Glossary On
Versions: 1 2 3 4 5 6 7 8 9 10 11 12 13 14 15 16 17 18 19 20 21 22 23 24 25 26 27 28 29 30 31 32 33 34
042
FTUS41 KPHI 052326
TAFPHL
TAF
KPHL 052326Z 0600/0706 05010KT P6SM OVC035
      TEMPO 0601/0603 OVC015
     FM060300 03010KT P6SM OVC015
     FM060600 03011KT 5SM -RA OVC010
     FM061000 03012G18KT 4SM RA BR OVC007
     FM070000 06010KT 5SM -RA BR OVC010=

USA.gov is the U.S. government's official web portal to all federal, state and local government web resources and services.